sensor_id;sensor_type;location;lat;lon;timestamp;P1;durP1;ratioP1;P2;durP2;ratioP2
22628;SDS011;11481;53.694;9.910;2024-02-04T00:00:23;12.88;;;1.58;;
22628;SDS011;11481;53.694;9.910;2024-02-04T00:02:50;16.95;;;2.45;;
22628;SDS011;11481;53.694;9.910;2024-02-04T00:05:17;9.25;;;1.63;;
22628;SDS011;11481;53.694;9.910;2024-02-04T00:07:45;10.98;;;2.00;;
22628;SDS011;11481;53.694;9.910;2024-02-04T00:10:15;8.48;;;1.70;;
22628;SDS011;11481;53.694;9.910;2024-02-04T00:12:44;17.95;;;2.00;;
22628;SDS011;11481;53.694;9.910;2024-02-04T00:15:11;12.23;;;1.55;;
22628;SDS011;11481;53.694;9.910;2024-02-04T00:17:38;12.60;;;1.92;;
22628;SDS011;11481;53.694;9.910;2024-02-04T00:20:05;11.05;;;1.50;;
22628;SDS011;11481;53.694;9.910;2024-02-04T00:22:34;12.52;;;2.10;;
22628;SDS011;11481;53.694;9.910;2024-02-04T00:25:01;12.07;;;2.15;;
22628;SDS011;11481;53.694;9.910;2024-02-04T00:27:32;15.45;;;2.22;;
22628;SDS011;11481;53.694;9.910;2024-02-04T00:29:59;15.35;;;1.77;;
22628;SDS011;11481;53.694;9.910;2024-02-04T00:32:26;12.18;;;1.60;;
22628;SDS011;11481;53.694;9.910;2024-02-04T00:34:53;12.65;;;2.15;;
22628;SDS011;11481;53.694;9.910;2024-02-04T00:37:20;21.02;;;2.08;;
22628;SDS011;11481;53.694;9.910;2024-02-04T00:39:47;15.52;;;1.70;;
22628;SDS011;11481;53.694;9.910;2024-02-04T00:42:14;7.30;;;1.38;;
22628;SDS011;11481;53.694;9.910;2024-02-04T00:44:41;8.27;;;2.00;;
22628;SDS011;11481;53.694;9.910;2024-02-04T00:47:08;17.70;;;1.90;;
22628;SDS011;11481;53.694;9.910;2024-02-04T00:49:34;11.98;;;1.70;;
22628;SDS011;11481;53.694;9.910;2024-02-04T00:52:01;15.93;;;2.30;;
22628;SDS011;11481;53.694;9.910;2024-02-04T00:54:29;16.52;;;2.00;;
22628;SDS011;11481;53.694;9.910;2024-02-04T00:56:55;11.07;;;1.95;;
22628;SDS011;11481;53.694;9.910;2024-02-04T00:59:23;14.45;;;1.92;;
22628;SDS011;11481;53.694;9.910;2024-02-04T01:01:50;14.77;;;1.83;;
22628;SDS011;11481;53.694;9.910;2024-02-04T01:04:17;8.32;;;1.40;;
22628;SDS011;11481;53.694;9.910;2024-02-04T01:06:44;14.45;;;1.70;;
22628;SDS011;11481;53.694;9.910;2024-02-04T01:09:25;13.80;;;1.90;;
22628;SDS011;11481;53.694;9.910;2024-02-04T01:11:53;18.08;;;2.10;;
22628;SDS011;11481;53.694;9.910;2024-02-04T01:14:20;10.15;;;1.40;;
22628;SDS011;11481;53.694;9.910;2024-02-04T01:16:47;14.27;;;1.70;;
22628;SDS011;11481;53.694;9.910;2024-02-04T01:19:14;7.60;;;1.15;;
22628;SDS011;11481;53.694;9.910;2024-02-04T01:21:41;10.48;;;1.60;;
22628;SDS011;11481;53.694;9.910;2024-02-04T01:24:08;9.55;;;1.60;;
22628;SDS011;11481;53.694;9.910;2024-02-04T01:26:34;12.43;;;1.58;;
22628;SDS011;11481;53.694;9.910;2024-02-04T01:29:01;11.40;;;1.63;;
22628;SDS011;11481;53.694;9.910;2024-02-04T01:31:28;17.95;;;1.88;;
22628;SDS011;11481;53.694;9.910;2024-02-04T01:33:55;17.45;;;1.80;;
22628;SDS011;11481;53.694;9.910;2024-02-04T01:36:22;8.65;;;1.70;;
22628;SDS011;11481;53.694;9.910;2024-02-04T01:38:49;7.57;;;1.38;;
22628;SDS011;11481;53.694;9.910;2024-02-04T01:41:16;6.70;;;1.40;;
22628;SDS011;11481;53.694;9.910;2024-02-04T01:43:43;8.15;;;1.23;;
22628;SDS011;11481;53.694;9.910;2024-02-04T01:46:10;8.75;;;1.10;;
22628;SDS011;11481;53.694;9.910;2024-02-04T01:48:37;11.07;;;1.52;;
22628;SDS011;11481;53.694;9.910;2024-02-04T01:51:04;12.38;;;1.63;;
22628;SDS011;11481;53.694;9.910;2024-02-04T01:53:31;7.47;;;1.38;;
22628;SDS011;11481;53.694;9.910;2024-02-04T01:56:00;11.63;;;1.60;;
22628;SDS011;11481;53.694;9.910;2024-02-04T01:58:27;9.80;;;1.65;;
22628;SDS011;11481;53.694;9.910;2024-02-04T02:00:54;11.25;;;1.70;;
22628;SDS011;11481;53.694;9.910;2024-02-04T02:03:21;9.73;;;1.30;;
22628;SDS011;11481;53.694;9.910;2024-02-04T02:05:49;12.50;;;1.45;;
22628;SDS011;11481;53.694;9.910;2024-02-04T02:08:17;11.65;;;1.45;;
22628;SDS011;11481;53.694;9.910;2024-02-04T02:10:47;9.88;;;1.77;;
22628;SDS011;11481;53.694;9.910;2024-02-04T02:13:26;8.80;;;1.50;;
22628;SDS011;11481;53.694;9.910;2024-02-04T02:15:56;12.38;;;1.73;;
22628;SDS011;11481;53.694;9.910;2024-02-04T02:19:03;6.38;;;1.85;;
22628;SDS011;11481;53.694;9.910;2024-02-04T02:21:36;7.22;;;1.10;;
22628;SDS011;11481;53.694;9.910;2024-02-04T02:24:24;7.30;;;1.40;;
22628;SDS011;11481;53.694;9.910;2024-02-04T02:26:55;11.13;;;1.42;;
22628;SDS011;11481;53.694;9.910;2024-02-04T02:29:25;13.27;;;1.80;;
22628;SDS011;11481;53.694;9.910;2024-02-04T02:31:51;8.18;;;1.50;;
22628;SDS011;11481;53.694;9.910;2024-02-04T02:34:21;4.03;;;1.25;;
22628;SDS011;11481;53.694;9.910;2024-02-04T02:37:06;14.55;;;1.80;;
22628;SDS011;11481;53.694;9.910;2024-02-04T02:40:08;7.43;;;1.02;;
22628;SDS011;11481;53.694;9.910;2024-02-04T02:42:35;7.15;;;1.08;;
22628;SDS011;11481;53.694;9.910;2024-02-04T02:45:04;11.25;;;1.52;;
22628;SDS011;11481;53.694;9.910;2024-02-04T02:47:33;6.63;;;1.17;;
22628;SDS011;11481;53.694;9.910;2024-02-04T02:50:01;11.27;;;1.65;;
22628;SDS011;11481;53.694;9.910;2024-02-04T02:52:28;10.77;;;1.67;;
22628;SDS011;11481;53.694;9.910;2024-02-04T02:54:55;9.50;;;1.70;;
22628;SDS011;11481;53.694;9.910;2024-02-04T02:57:22;8.25;;;1.50;;
22628;SDS011;11481;53.694;9.910;2024-02-04T02:59:49;9.52;;;1.02;;
22628;SDS011;11481;53.694;9.910;2024-02-04T03:02:16;7.15;;;1.42;;
22628;SDS011;11481;53.694;9.910;2024-02-04T03:04:42;7.95;;;1.05;;
22628;SDS011;11481;53.694;9.910;2024-02-04T03:07:09;9.32;;;1.58;;
22628;SDS011;11481;53.694;9.910;2024-02-04T03:09:36;11.80;;;1.33;;
22628;SDS011;11481;53.694;9.910;2024-02-04T03:12:03;7.55;;;1.38;;
22628;SDS011;11481;53.694;9.910;2024-02-04T03:14:31;10.43;;;1.40;;
22628;SDS011;11481;53.694;9.910;2024-02-04T03:16:58;13.90;;;1.77;;
22628;SDS011;11481;53.694;9.910;2024-02-04T03:19:25;6.93;;;1.40;;
22628;SDS011;11481;53.694;9.910;2024-02-04T03:21:51;8.65;;;1.38;;
22628;SDS011;11481;53.694;9.910;2024-02-04T03:24:18;8.25;;;1.80;;
22628;SDS011;11481;53.694;9.910;2024-02-04T03:26:45;10.25;;;1.63;;
22628;SDS011;11481;53.694;9.910;2024-02-04T03:29:12;10.73;;;1.45;;
22628;SDS011;11481;53.694;9.910;2024-02-04T03:31:39;5.20;;;1.25;;
22628;SDS011;11481;53.694;9.910;2024-02-04T03:34:06;7.90;;;1.35;;
22628;SDS011;11481;53.694;9.910;2024-02-04T03:36:33;10.30;;;1.63;;
22628;SDS011;11481;53.694;9.910;2024-02-04T03:39:01;8.63;;;1.60;;
22628;SDS011;11481;53.694;9.910;2024-02-04T03:41:28;11.57;;;1.55;;
22628;SDS011;11481;53.694;9.910;2024-02-04T03:43:55;12.30;;;1.40;;
22628;SDS011;11481;53.694;9.910;2024-02-04T03:46:22;8.30;;;1.90;;
22628;SDS011;11481;53.694;9.910;2024-02-04T03:48:48;6.72;;;1.13;;
22628;SDS011;11481;53.694;9.910;2024-02-04T03:51:16;8.85;;;1.25;;
22628;SDS011;11481;53.694;9.910;2024-02-04T03:53:44;12.10;;;2.00;;
22628;SDS011;11481;53.694;9.910;2024-02-04T03:56:11;10.68;;;1.50;;
22628;SDS011;11481;53.694;9.910;2024-02-04T03:58:39;13.98;;;1.92;;
22628;SDS011;11481;53.694;9.910;2024-02-04T04:01:09;8.07;;;1.80;;
22628;SDS011;11481;53.694;9.910;2024-02-04T04:03:38;9.40;;;1.50;;
22628;SDS011;11481;53.694;9.910;2024-02-04T04:06:09;9.55;;;1.50;;
22628;SDS011;11481;53.694;9.910;2024-02-04T04:08:37;6.32;;;1.30;;
22628;SDS011;11481;53.694;9.910;2024-02-04T04:11:05;17.00;;;2.20;;
22628;SDS011;11481;53.694;9.910;2024-02-04T04:13:33;13.48;;;1.52;;
22628;SDS011;11481;53.694;9.910;2024-02-04T04:16:02;13.90;;;2.08;;
22628;SDS011;11481;53.694;9.910;2024-02-04T04:18:29;8.25;;;1.50;;
22628;SDS011;11481;53.694;9.910;2024-02-04T04:20:56;12.77;;;1.80;;
22628;SDS011;11481;53.694;9.910;2024-02-04T04:23:23;11.00;;;1.90;;
22628;SDS011;11481;53.694;9.910;2024-02-04T04:25:50;9.45;;;2.10;;
22628;SDS011;11481;53.694;9.910;2024-02-04T04:28:17;8.05;;;1.70;;
22628;SDS011;11481;53.694;9.910;2024-02-04T04:30:44;6.95;;;1.63;;
22628;SDS011;11481;53.694;9.910;2024-02-04T04:33:11;17.27;;;1.90;;
22628;SDS011;11481;53.694;9.910;2024-02-04T04:35:38;12.65;;;1.90;;
22628;SDS011;11481;53.694;9.910;2024-02-04T04:38:05;9.57;;;2.03;;
22628;SDS011;11481;53.694;9.910;2024-02-04T04:40:32;9.73;;;1.98;;
22628;SDS011;11481;53.694;9.910;2024-02-04T04:42:59;13.25;;;2.03;;
22628;SDS011;11481;53.694;9.910;2024-02-04T04:45:26;13.82;;;2.15;;
22628;SDS011;11481;53.694;9.910;2024-02-04T04:47:53;11.10;;;1.92;;
22628;SDS011;11481;53.694;9.910;2024-02-04T04:50:21;8.23;;;1.80;;
22628;SDS011;11481;53.694;9.910;2024-02-04T04:52:48;12.98;;;2.38;;
22628;SDS011;11481;53.694;9.910;2024-02-04T04:55:15;12.45;;;2.40;;
22628;SDS011;11481;53.694;9.910;2024-02-04T04:57:43;9.48;;;1.90;;
22628;SDS011;11481;53.694;9.910;2024-02-04T05:00:10;8.60;;;2.05;;
22628;SDS011;11481;53.694;9.910;2024-02-04T05:02:42;12.10;;;2.20;;
22628;SDS011;11481;53.694;9.910;2024-02-04T05:05:10;11.30;;;2.70;;
22628;SDS011;11481;53.694;9.910;2024-02-04T05:07:38;11.50;;;2.50;;
22628;SDS011;11481;53.694;9.910;2024-02-04T05:10:06;15.30;;;2.95;;
22628;SDS011;11481;53.694;9.910;2024-02-04T05:12:34;9.75;;;2.45;;
22628;SDS011;11481;53.694;9.910;2024-02-04T05:15:02;19.38;;;2.97;;
22628;SDS011;11481;53.694;9.910;2024-02-04T05:17:29;13.40;;;2.20;;
22628;SDS011;11481;53.694;9.910;2024-02-04T05:19:55;18.13;;;2.53;;
22628;SDS011;11481;53.694;9.910;2024-02-04T05:22:22;10.32;;;2.20;;
22628;SDS011;11481;53.694;9.910;2024-02-04T05:24:49;7.35;;;2.08;;
22628;SDS011;11481;53.694;9.910;2024-02-04T05:27:16;10.07;;;2.40;;
22628;SDS011;11481;53.694;9.910;2024-02-04T05:29:43;14.07;;;2.17;;
22628;SDS011;11481;53.694;9.910;2024-02-04T05:32:11;18.17;;;2.45;;
22628;SDS011;11481;53.694;9.910;2024-02-04T05:34:38;10.90;;;2.58;;
22628;SDS011;11481;53.694;9.910;2024-02-04T05:37:05;10.27;;;2.25;;
22628;SDS011;11481;53.694;9.910;2024-02-04T05:39:33;10.75;;;2.08;;
22628;SDS011;11481;53.694;9.910;2024-02-04T05:42:00;10.95;;;2.20;;
22628;SDS011;11481;53.694;9.910;2024-02-04T05:44:27;14.00;;;2.72;;
22628;SDS011;11481;53.694;9.910;2024-02-04T05:46:54;16.83;;;3.22;;
22628;SDS011;11481;53.694;9.910;2024-02-04T05:49:21;13.77;;;2.60;;
22628;SDS011;11481;53.694;9.910;2024-02-04T05:51:48;12.25;;;2.55;;
22628;SDS011;11481;53.694;9.910;2024-02-04T05:54:15;14.48;;;2.75;;
22628;SDS011;11481;53.694;9.910;2024-02-04T05:56:43;11.55;;;2.45;;
22628;SDS011;11481;53.694;9.910;2024-02-04T05:59:11;14.20;;;2.45;;
22628;SDS011;11481;53.694;9.910;2024-02-04T06:01:43;11.35;;;2.38;;
22628;SDS011;11481;53.694;9.910;2024-02-04T06:04:36;12.38;;;2.25;;
22628;SDS011;11481;53.694;9.910;2024-02-04T06:07:10;10.38;;;2.20;;
22628;SDS011;11481;53.694;9.910;2024-02-04T06:09:42;11.02;;;2.30;;
22628;SDS011;11481;53.694;9.910;2024-02-04T06:12:34;10.43;;;1.70;;
22628;SDS011;11481;53.694;9.910;2024-02-04T06:15:06;8.48;;;1.90;;
22628;SDS011;11481;53.694;9.910;2024-02-04T06:17:50;9.85;;;1.95;;
22628;SDS011;11481;53.694;9.910;2024-02-04T06:20:30;10.70;;;1.85;;
22628;SDS011;11481;53.694;9.910;2024-02-04T06:23:04;9.88;;;1.70;;
22628;SDS011;11481;53.694;9.910;2024-02-04T06:25:31;10.40;;;1.58;;
22628;SDS011;11481;53.694;9.910;2024-02-04T06:28:01;13.90;;;2.10;;
22628;SDS011;11481;53.694;9.910;2024-02-04T06:30:28;15.80;;;1.60;;
22628;SDS011;11481;53.694;9.910;2024-02-04T06:32:55;13.63;;;2.30;;
22628;SDS011;11481;53.694;9.910;2024-02-04T06:35:23;14.93;;;2.38;;
22628;SDS011;11481;53.694;9.910;2024-02-04T06:37:49;5.47;;;1.58;;
22628;SDS011;11481;53.694;9.910;2024-02-04T06:40:16;19.90;;;1.80;;
22628;SDS011;11481;53.694;9.910;2024-02-04T06:42:43;10.82;;;1.88;;
22628;SDS011;11481;53.694;9.910;2024-02-04T06:45:10;11.82;;;2.20;;
22628;SDS011;11481;53.694;9.910;2024-02-04T06:47:37;12.55;;;2.20;;
22628;SDS011;11481;53.694;9.910;2024-02-04T06:50:05;11.60;;;2.05;;
22628;SDS011;11481;53.694;9.910;2024-02-04T06:52:33;14.43;;;1.80;;
22628;SDS011;11481;53.694;9.910;2024-02-04T06:55:00;9.57;;;1.73;;
22628;SDS011;11481;53.694;9.910;2024-02-04T06:57:27;11.38;;;1.38;;
22628;SDS011;11481;53.694;9.910;2024-02-04T06:59:54;14.93;;;1.50;;
22628;SDS011;11481;53.694;9.910;2024-02-04T07:02:20;12.43;;;1.63;;
22628;SDS011;11481;53.694;9.910;2024-02-04T07:04:47;12.82;;;1.77;;
22628;SDS011;11481;53.694;9.910;2024-02-04T07:07:19;13.05;;;1.95;;
22628;SDS011;11481;53.694;9.910;2024-02-04T07:09:46;9.88;;;1.85;;
22628;SDS011;11481;53.694;9.910;2024-02-04T07:12:13;11.10;;;1.88;;
22628;SDS011;11481;53.694;9.910;2024-02-04T07:14:40;10.18;;;1.70;;
22628;SDS011;11481;53.694;9.910;2024-02-04T07:17:07;11.73;;;1.90;;
22628;SDS011;11481;53.694;9.910;2024-02-04T07:19:34;10.35;;;1.77;;
22628;SDS011;11481;53.694;9.910;2024-02-04T07:25:18;8.35;;;1.60;;
22628;SDS011;11481;53.694;9.910;2024-02-04T07:27:45;11.60;;;2.08;;
22628;SDS011;11481;53.694;9.910;2024-02-04T07:30:12;11.77;;;1.70;;
22628;SDS011;11481;53.694;9.910;2024-02-04T07:32:39;12.10;;;2.63;;
22628;SDS011;11481;53.694;9.910;2024-02-04T07:35:06;8.18;;;1.20;;
22628;SDS011;11481;53.694;9.910;2024-02-04T07:37:35;17.45;;;2.28;;
22628;SDS011;11481;53.694;9.910;2024-02-04T07:40:02;20.30;;;1.67;;
22628;SDS011;11481;53.694;9.910;2024-02-04T07:42:31;9.80;;;1.75;;
22628;SDS011;11481;53.694;9.910;2024-02-04T07:44:58;7.85;;;1.80;;
22628;SDS011;11481;53.694;9.910;2024-02-04T07:47:25;9.75;;;1.58;;
22628;SDS011;11481;53.694;9.910;2024-02-04T07:49:52;9.55;;;2.03;;
22628;SDS011;11481;53.694;9.910;2024-02-04T07:52:19;11.50;;;2.13;;
22628;SDS011;11481;53.694;9.910;2024-02-04T07:54:46;11.48;;;2.10;;
22628;SDS011;11481;53.694;9.910;2024-02-04T07:57:13;13.65;;;1.83;;
22628;SDS011;11481;53.694;9.910;2024-02-04T07:59:39;11.88;;;1.80;;
22628;SDS011;11481;53.694;9.910;2024-02-04T08:02:06;9.10;;;1.88;;
22628;SDS011;11481;53.694;9.910;2024-02-04T08:04:33;15.18;;;2.22;;
22628;SDS011;11481;53.694;9.910;2024-02-04T08:07:00;13.13;;;1.77;;
22628;SDS011;11481;53.694;9.910;2024-02-04T08:09:28;9.98;;;2.08;;
22628;SDS011;11481;53.694;9.910;2024-02-04T08:11:55;20.05;;;2.25;;
22628;SDS011;11481;53.694;9.910;2024-02-04T08:14:25;15.35;;;2.30;;
22628;SDS011;11481;53.694;9.910;2024-02-04T08:16:51;13.82;;;2.30;;
22628;SDS011;11481;53.694;9.910;2024-02-04T08:19:18;10.13;;;2.50;;
22628;SDS011;11481;53.694;9.910;2024-02-04T08:21:45;12.02;;;2.42;;
22628;SDS011;11481;53.694;9.910;2024-02-04T08:24:12;7.45;;;2.03;;
22628;SDS011;11481;53.694;9.910;2024-02-04T08:26:39;14.90;;;2.45;;
22628;SDS011;11481;53.694;9.910;2024-02-04T08:29:06;13.32;;;2.45;;
22628;SDS011;11481;53.694;9.910;2024-02-04T08:31:33;15.90;;;2.60;;
22628;SDS011;11481;53.694;9.910;2024-02-04T08:34:00;10.52;;;2.33;;
22628;SDS011;11481;53.694;9.910;2024-02-04T08:36:30;11.57;;;2.60;;
22628;SDS011;11481;53.694;9.910;2024-02-04T08:38:57;13.18;;;2.45;;
22628;SDS011;11481;53.694;9.910;2024-02-04T08:41:37;14.20;;;2.40;;
22628;SDS011;11481;53.694;9.910;2024-02-04T08:44:05;18.02;;;3.25;;
22628;SDS011;11481;53.694;9.910;2024-02-04T08:46:47;10.65;;;2.78;;
22628;SDS011;11481;53.694;9.910;2024-02-04T08:49:17;14.57;;;2.58;;
22628;SDS011;11481;53.694;9.910;2024-02-04T08:51:47;12.52;;;3.08;;
22628;SDS011;11481;53.694;9.910;2024-02-04T08:54:24;24.60;;;3.35;;
22628;SDS011;11481;53.694;9.910;2024-02-04T08:57:07;11.57;;;3.28;;
22628;SDS011;11481;53.694;9.910;2024-02-04T08:59:48;17.90;;;3.88;;
22628;SDS011;11481;53.694;9.910;2024-02-04T09:02:18;16.17;;;3.28;;
22628;SDS011;11481;53.694;9.910;2024-02-04T09:04:46;15.05;;;2.90;;
22628;SDS011;11481;53.694;9.910;2024-02-04T09:07:13;17.40;;;3.70;;
22628;SDS011;11481;53.694;9.910;2024-02-04T09:09:40;18.25;;;3.42;;
22628;SDS011;11481;53.694;9.910;2024-02-04T09:12:08;13.45;;;2.50;;
22628;SDS011;11481;53.694;9.910;2024-02-04T09:14:35;17.98;;;3.10;;
22628;SDS011;11481;53.694;9.910;2024-02-04T09:17:03;13.93;;;3.05;;
22628;SDS011;11481;53.694;9.910;2024-02-04T09:19:30;12.95;;;3.08;;
22628;SDS011;11481;53.694;9.910;2024-02-04T09:21:57;11.48;;;3.05;;
22628;SDS011;11481;53.694;9.910;2024-02-04T09:24:28;11.50;;;2.95;;
22628;SDS011;11481;53.694;9.910;2024-02-04T09:26:56;12.98;;;3.08;;
22628;SDS011;11481;53.694;9.910;2024-02-04T09:29:23;12.40;;;3.33;;
22628;SDS011;11481;53.694;9.910;2024-02-04T09:31:50;11.18;;;3.08;;
22628;SDS011;11481;53.694;9.910;2024-02-04T09:34:18;14.55;;;3.30;;
22628;SDS011;11481;53.694;9.910;2024-02-04T09:36:47;12.95;;;2.88;;
22628;SDS011;11481;53.694;9.910;2024-02-04T09:39:14;16.25;;;2.97;;
22628;SDS011;11481;53.694;9.910;2024-02-04T09:41:43;9.70;;;2.92;;
22628;SDS011;11481;53.694;9.910;2024-02-04T09:44:10;15.98;;;2.80;;
22628;SDS011;11481;53.694;9.910;2024-02-04T09:46:40;13.63;;;3.20;;
22628;SDS011;11481;53.694;9.910;2024-02-04T09:49:07;9.68;;;2.88;;
22628;SDS011;11481;53.694;9.910;2024-02-04T09:51:35;12.90;;;2.47;;
22628;SDS011;11481;53.694;9.910;2024-02-04T09:54:03;14.13;;;2.70;;
22628;SDS011;11481;53.694;9.910;2024-02-04T09:56:32;14.20;;;2.38;;
22628;SDS011;11481;53.694;9.910;2024-02-04T09:59:01;14.63;;;2.45;;
22628;SDS011;11481;53.694;9.910;2024-02-04T10:01:28;20.17;;;3.30;;
22628;SDS011;11481;53.694;9.910;2024-02-04T10:03:55;15.18;;;2.65;;
22628;SDS011;11481;53.694;9.910;2024-02-04T10:06:22;12.63;;;2.30;;
22628;SDS011;11481;53.694;9.910;2024-02-04T10:08:50;9.18;;;3.00;;
22628;SDS011;11481;53.694;9.910;2024-02-04T10:11:17;16.55;;;3.13;;
22628;SDS011;11481;53.694;9.910;2024-02-04T10:13:45;24.48;;;3.72;;
22628;SDS011;11481;53.694;9.910;2024-02-04T10:16:13;20.02;;;2.80;;
22628;SDS011;11481;53.694;9.910;2024-02-04T10:18:45;15.23;;;2.67;;
22628;SDS011;11481;53.694;9.910;2024-02-04T10:21:14;24.73;;;2.83;;
22628;SDS011;11481;53.694;9.910;2024-02-04T10:23:48;8.98;;;2.03;;
22628;SDS011;11481;53.694;9.910;2024-02-04T10:26:16;8.40;;;2.60;;
22628;SDS011;11481;53.694;9.910;2024-02-04T10:28:47;15.60;;;2.08;;
22628;SDS011;11481;53.694;9.910;2024-02-04T10:31:14;25.23;;;3.50;;
22628;SDS011;11481;53.694;9.910;2024-02-04T10:33:42;16.40;;;2.33;;
22628;SDS011;11481;53.694;9.910;2024-02-04T10:36:11;11.95;;;2.50;;
22628;SDS011;11481;53.694;9.910;2024-02-04T10:38:37;11.05;;;1.88;;
22628;SDS011;11481;53.694;9.910;2024-02-04T10:41:04;15.98;;;2.63;;
22628;SDS011;11481;53.694;9.910;2024-02-04T10:43:33;18.95;;;2.83;;
22628;SDS011;11481;53.694;9.910;2024-02-04T10:46:01;11.55;;;2.17;;
22628;SDS011;11481;53.694;9.910;2024-02-04T10:48:47;10.60;;;2.22;;
22628;SDS011;11481;53.694;9.910;2024-02-04T10:51:24;12.32;;;2.28;;
22628;SDS011;11481;53.694;9.910;2024-02-04T10:53:55;16.73;;;3.33;;
22628;SDS011;11481;53.694;9.910;2024-02-04T10:56:37;18.15;;;2.55;;
22628;SDS011;11481;53.694;9.910;2024-02-04T10:59:10;9.30;;;2.05;;
22628;SDS011;11481;53.694;9.910;2024-02-04T11:01:44;17.77;;;2.72;;
22628;SDS011;11481;53.694;9.910;2024-02-04T11:04:14;17.33;;;2.33;;
22628;SDS011;11481;53.694;9.910;2024-02-04T11:06:44;17.30;;;2.78;;
22628;SDS011;11481;53.694;9.910;2024-02-04T11:09:11;20.67;;;2.70;;
22628;SDS011;11481;53.694;9.910;2024-02-04T11:11:40;9.85;;;2.60;;
22628;SDS011;11481;53.694;9.910;2024-02-04T11:14:09;9.52;;;2.20;;
22628;SDS011;11481;53.694;9.910;2024-02-04T11:22:17;11.48;;;2.03;;
22628;SDS011;11481;53.694;9.910;2024-02-04T11:27:51;12.20;;;2.30;;
22628;SDS011;11481;53.694;9.910;2024-02-04T11:30:19;23.98;;;3.15;;
22628;SDS011;11481;53.694;9.910;2024-02-04T11:32:46;18.05;;;2.45;;
22628;SDS011;11481;53.694;9.910;2024-02-04T11:35:13;15.43;;;2.47;;
22628;SDS011;11481;53.694;9.910;2024-02-04T11:37:41;13.20;;;2.40;;
22628;SDS011;11481;53.694;9.910;2024-02-04T11:40:13;9.70;;;2.45;;
22628;SDS011;11481;53.694;9.910;2024-02-04T11:42:42;12.77;;;2.75;;
22628;SDS011;11481;53.694;9.910;2024-02-04T11:45:11;12.63;;;2.60;;
22628;SDS011;11481;53.694;9.910;2024-02-04T11:47:39;12.70;;;2.35;;
22628;SDS011;11481;53.694;9.910;2024-02-04T11:50:06;10.98;;;1.95;;
22628;SDS011;11481;53.694;9.910;2024-02-04T11:52:37;15.80;;;2.67;;
22628;SDS011;11481;53.694;9.910;2024-02-04T11:55:05;11.38;;;2.25;;
22628;SDS011;11481;53.694;9.910;2024-02-04T11:57:33;11.02;;;2.20;;
22628;SDS011;11481;53.694;9.910;2024-02-04T12:00:01;14.05;;;2.25;;
22628;SDS011;11481;53.694;9.910;2024-02-04T12:02:32;9.27;;;2.20;;
22628;SDS011;11481;53.694;9.910;2024-02-04T12:04:59;15.80;;;2.25;;
22628;SDS011;11481;53.694;9.910;2024-02-04T12:07:29;9.07;;;1.95;;
22628;SDS011;11481;53.694;9.910;2024-02-04T12:09:56;15.23;;;2.17;;
22628;SDS011;11481;53.694;9.910;2024-02-04T12:12:24;9.18;;;2.33;;
22628;SDS011;11481;53.694;9.910;2024-02-04T12:14:53;14.48;;;2.40;;
22628;SDS011;11481;53.694;9.910;2024-02-04T12:17:20;15.05;;;2.72;;
22628;SDS011;11481;53.694;9.910;2024-02-04T12:19:47;18.55;;;2.50;;
22628;SDS011;11481;53.694;9.910;2024-02-04T12:22:16;16.70;;;2.00;;
22628;SDS011;11481;53.694;9.910;2024-02-04T12:24:46;13.77;;;2.20;;
22628;SDS011;11481;53.694;9.910;2024-02-04T12:27:15;11.40;;;1.92;;
22628;SDS011;11481;53.694;9.910;2024-02-04T12:29:43;12.40;;;2.30;;
22628;SDS011;11481;53.694;9.910;2024-02-04T12:32:13;13.30;;;2.42;;
22628;SDS011;11481;53.694;9.910;2024-02-04T12:34:40;11.93;;;2.38;;
22628;SDS011;11481;53.694;9.910;2024-02-04T12:37:08;16.70;;;2.40;;
22628;SDS011;11481;53.694;9.910;2024-02-04T12:39:36;11.68;;;2.67;;
22628;SDS011;11481;53.694;9.910;2024-02-04T12:42:03;9.68;;;1.88;;
22628;SDS011;11481;53.694;9.910;2024-02-04T12:44:31;10.43;;;1.83;;
22628;SDS011;11481;53.694;9.910;2024-02-04T12:46:58;12.30;;;2.40;;
22628;SDS011;11481;53.694;9.910;2024-02-04T12:49:25;11.82;;;2.03;;
22628;SDS011;11481;53.694;9.910;2024-02-04T12:51:52;12.35;;;2.17;;
22628;SDS011;11481;53.694;9.910;2024-02-04T12:54:30;9.98;;;2.85;;
22628;SDS011;11481;53.694;9.910;2024-02-04T12:56:57;17.23;;;2.13;;
22628;SDS011;11481;53.694;9.910;2024-02-04T12:59:29;10.75;;;1.98;;
22628;SDS011;11481;53.694;9.910;2024-02-04T13:02:04;18.90;;;2.08;;
22628;SDS011;11481;53.694;9.910;2024-02-04T13:04:33;9.65;;;2.10;;
22628;SDS011;11481;53.694;9.910;2024-02-04T13:07:09;10.40;;;2.08;;
22628;SDS011;11481;53.694;9.910;2024-02-04T13:09:41;13.40;;;2.58;;
22628;SDS011;11481;53.694;9.910;2024-02-04T13:12:09;12.07;;;1.90;;
22628;SDS011;11481;53.694;9.910;2024-02-04T13:14:41;9.40;;;2.42;;
22628;SDS011;11481;53.694;9.910;2024-02-04T13:17:08;13.40;;;2.33;;
22628;SDS011;11481;53.694;9.910;2024-02-04T13:19:36;16.55;;;2.53;;
22628;SDS011;11481;53.694;9.910;2024-02-04T13:22:07;9.00;;;2.70;;
22628;SDS011;11481;53.694;9.910;2024-02-04T13:24:37;15.15;;;2.75;;
22628;SDS011;11481;53.694;9.910;2024-02-04T13:27:06;13.30;;;2.00;;
22628;SDS011;11481;53.694;9.910;2024-02-04T13:29:34;8.48;;;2.30;;
22628;SDS011;11481;53.694;9.910;2024-02-04T13:32:01;13.23;;;2.50;;
22628;SDS011;11481;53.694;9.910;2024-02-04T13:34:28;12.30;;;2.00;;
22628;SDS011;11481;53.694;9.910;2024-02-04T13:36:55;9.90;;;2.50;;
22628;SDS011;11481;53.694;9.910;2024-02-04T13:39:23;8.65;;;2.15;;
22628;SDS011;11481;53.694;9.910;2024-02-04T13:41:49;19.25;;;2.42;;
22628;SDS011;11481;53.694;9.910;2024-02-04T13:44:16;10.63;;;1.70;;
22628;SDS011;11481;53.694;9.910;2024-02-04T13:46:43;11.45;;;2.17;;
22628;SDS011;11481;53.694;9.910;2024-02-04T13:49:10;13.00;;;2.47;;
22628;SDS011;11481;53.694;9.910;2024-02-04T13:51:39;8.73;;;2.10;;
22628;SDS011;11481;53.694;9.910;2024-02-04T13:54:11;11.15;;;2.33;;
22628;SDS011;11481;53.694;9.910;2024-02-04T13:56:42;16.17;;;2.58;;
22628;SDS011;11481;53.694;9.910;2024-02-04T13:59:09;14.18;;;2.22;;
22628;SDS011;11481;53.694;9.910;2024-02-04T14:01:36;7.65;;;1.65;;
22628;SDS011;11481;53.694;9.910;2024-02-04T14:04:03;15.52;;;2.50;;
22628;SDS011;11481;53.694;9.910;2024-02-04T14:06:30;9.60;;;2.42;;
22628;SDS011;11481;53.694;9.910;2024-02-04T14:08:57;11.60;;;1.98;;
22628;SDS011;11481;53.694;9.910;2024-02-04T14:11:24;17.30;;;2.58;;
22628;SDS011;11481;53.694;9.910;2024-02-04T14:13:51;11.65;;;2.08;;
22628;SDS011;11481;53.694;9.910;2024-02-04T14:16:18;11.68;;;2.50;;
22628;SDS011;11481;53.694;9.910;2024-02-04T14:18:45;13.68;;;2.35;;
22628;SDS011;11481;53.694;9.910;2024-02-04T14:21:13;16.80;;;2.45;;
22628;SDS011;11481;53.694;9.910;2024-02-04T14:23:41;11.98;;;2.20;;
22628;SDS011;11481;53.694;9.910;2024-02-04T14:26:15;10.73;;;1.70;;
22628;SDS011;11481;53.694;9.910;2024-02-04T14:28:46;14.05;;;2.42;;
22628;SDS011;11481;53.694;9.910;2024-02-04T14:31:13;19.08;;;2.30;;
22628;SDS011;11481;53.694;9.910;2024-02-04T14:33:41;9.57;;;2.20;;
22628;SDS011;11481;53.694;9.910;2024-02-04T14:36:08;16.42;;;2.70;;
22628;SDS011;11481;53.694;9.910;2024-02-04T14:38:36;17.42;;;2.45;;
22628;SDS011;11481;53.694;9.910;2024-02-04T14:41:05;17.15;;;2.30;;
22628;SDS011;11481;53.694;9.910;2024-02-04T14:43:35;17.30;;;2.50;;
22628;SDS011;11481;53.694;9.910;2024-02-04T14:46:01;16.58;;;2.17;;
22628;SDS011;11481;53.694;9.910;2024-02-04T14:48:29;13.35;;;2.92;;
22628;SDS011;11481;53.694;9.910;2024-02-04T14:50:56;14.70;;;2.30;;
22628;SDS011;11481;53.694;9.910;2024-02-04T14:53:24;11.85;;;2.45;;
22628;SDS011;11481;53.694;9.910;2024-02-04T14:55:52;16.27;;;3.10;;
22628;SDS011;11481;53.694;9.910;2024-02-04T14:58:19;16.73;;;2.53;;